sensor_id;sensor_type;location;lat;lon;timestamp;pressure;altitude;pressure_sealevel;temperature;humidity
59757;BME280;45631;51.962;5.974;2023-04-09T00:01:24;102472.44;;;8.92;100.00
59757;BME280;45631;51.962;5.974;2023-04-09T00:03:52;102470.72;;;8.91;100.00
59757;BME280;45631;51.962;5.974;2023-04-09T00:06:20;102466.22;;;8.95;100.00
59757;BME280;45631;51.962;5.974;2023-04-09T00:08:48;102462.75;;;8.94;100.00
59757;BME280;45631;51.962;5.974;2023-04-09T00:11:19;102468.00;;;8.94;100.00
59757;BME280;45631;51.962;5.974;2023-04-09T00:13:48;102463.66;;;8.93;100.00
59757;BME280;45631;51.962;5.974;2023-04-09T00:16:16;102470.63;;;8.94;100.00
59757;BME280;45631;51.962;5.974;2023-04-09T00:18:45;102467.19;;;8.92;100.00
59757;BME280;45631;51.962;5.974;2023-04-09T00:21:13;102469.88;;;8.91;100.00
59757;BME280;45631;51.962;5.974;2023-04-09T00:23:41;102464.50;;;8.94;100.00
59757;BME280;45631;51.962;5.974;2023-04-09T00:26:10;102464.50;;;8.94;100.00
59757;BME280;45631;51.962;5.974;2023-04-09T00:28:38;102459.22;;;8.95;100.00
59757;BME280;45631;51.962;5.974;2023-04-09T00:31:07;102451.44;;;8.92;100.00
59757;BME280;45631;51.962;5.974;2023-04-09T00:33:36;102453.28;;;8.90;100.00
59757;BME280;45631;51.962;5.974;2023-04-09T00:36:04;102442.72;;;8.92;100.00
59757;BME280;45631;51.962;5.974;2023-04-09T00:38:33;102448.09;;;8.87;100.00
59757;BME280;45631;51.962;5.974;2023-04-09T00:41:01;102444.78;;;8.82;100.00
59757;BME280;45631;51.962;5.974;2023-04-09T00:43:29;102442.13;;;8.84;100.00
59757;BME280;45631;51.962;5.974;2023-04-09T00:45:57;102442.91;;;8.86;100.00
59757;BME280;45631;51.962;5.974;2023-04-09T00:48:28;102438.56;;;8.85;100.00
59757;BME280;45631;51.962;5.974;2023-04-09T00:50:56;102442.28;;;8.77;100.00
59757;BME280;45631;51.962;5.974;2023-04-09T00:53:24;102434.72;;;8.68;100.00
59757;BME280;45631;51.962;5.974;2023-04-09T00:55:52;102441.50;;;8.75;100.00
59757;BME280;45631;51.962;5.974;2023-04-09T00:58:21;102433.72;;;8.72;100.00
59757;BME280;45631;51.962;5.974;2023-04-09T01:00:50;102432.69;;;8.76;100.00
59757;BME280;45631;51.962;5.974;2023-04-09T01:03:18;102430.97;;;8.77;100.00
59757;BME280;45631;51.962;5.974;2023-04-09T01:05:53;102425.78;;;8.74;100.00
59757;BME280;45631;51.962;5.974;2023-04-09T01:08:31;102433.53;;;8.78;100.00
59757;BME280;45631;51.962;5.974;2023-04-09T01:11:06;102426.72;;;8.73;100.00
59757;BME280;45631;51.962;5.974;2023-04-09T01:13:43;102432.63;;;8.79;100.00
59757;BME280;45631;51.962;5.974;2023-04-09T01:16:14;102421.13;;;8.84;100.00
59757;BME280;45631;51.962;5.974;2023-04-09T01:18:49;102426.50;;;8.79;100.00
59757;BME280;45631;51.962;5.974;2023-04-09T01:21:24;102420.34;;;8.80;100.00
59757;BME280;45631;51.962;5.974;2023-04-09T01:23:57;102423.28;;;8.71;100.00
59757;BME280;45631;51.962;5.974;2023-04-09T01:26:39;102424.78;;;8.78;100.00
59757;BME280;45631;51.962;5.974;2023-04-09T01:29:09;102425.78;;;8.74;100.00
59757;BME280;45631;51.962;5.974;2023-04-09T01:31:38;102426.56;;;8.77;100.00
59757;BME280;45631;51.962;5.974;2023-04-09T01:34:12;102424.00;;;8.76;100.00
59757;BME280;45631;51.962;5.974;2023-04-09T01:36:44;102422.44;;;8.70;100.00
59757;BME280;45631;51.962;5.974;2023-04-09T01:39:13;102419.91;;;8.67;100.00
59757;BME280;45631;51.962;5.974;2023-04-09T01:41:41;102422.47;;;8.69;100.00
59757;BME280;45631;51.962;5.974;2023-04-09T01:44:11;102426.00;;;8.68;100.00
59757;BME280;45631;51.962;5.974;2023-04-09T01:46:40;102419.91;;;8.67;100.00
59757;BME280;45631;51.962;5.974;2023-04-09T01:49:10;102418.19;;;8.66;100.00
59757;BME280;45631;51.962;5.974;2023-04-09T01:51:38;102424.16;;;8.71;100.00
59757;BME280;45631;51.962;5.974;2023-04-09T01:54:09;102421.38;;;8.76;100.00
59757;BME280;45631;51.962;5.974;2023-04-09T01:56:41;102416.13;;;8.76;100.00
59757;BME280;45631;51.962;5.974;2023-04-09T01:59:11;102422.25;;;8.75;100.00
59757;BME280;45631;51.962;5.974;2023-04-09T02:01:44;102422.25;;;8.75;100.00
59757;BME280;45631;51.962;5.974;2023-04-09T02:04:19;102424.00;;;8.76;100.00
59757;BME280;45631;51.962;5.974;2023-04-09T02:06:57;102421.53;;;8.70;100.00
59757;BME280;45631;51.962;5.974;2023-04-09T02:09:29;102423.31;;;8.69;100.00
59757;BME280;45631;51.962;5.974;2023-04-09T02:12:00;102413.78;;;8.67;100.00
59757;BME280;45631;51.962;5.974;2023-04-09T02:14:31;102413.91;;;8.63;100.00
59757;BME280;45631;51.962;5.974;2023-04-09T02:17:00;102414.00;;;8.60;100.00
59757;BME280;45631;51.962;5.974;2023-04-09T02:19:37;102413.91;;;8.63;100.00
59757;BME280;45631;51.962;5.974;2023-04-09T02:22:06;102406.81;;;8.66;100.00
59757;BME280;45631;51.962;5.974;2023-04-09T02:24:34;102404.25;;;8.64;100.00
59757;BME280;45631;51.962;5.974;2023-04-09T02:27:03;102407.03;;;8.59;100.00
59757;BME280;45631;51.962;5.974;2023-04-09T02:29:35;102413.19;;;8.58;100.00
59757;BME280;45631;51.962;5.974;2023-04-09T02:32:04;102409.44;;;8.66;100.00
59757;BME280;45631;51.962;5.974;2023-04-09T02:34:32;102410.38;;;8.65;100.00
59757;BME280;45631;51.962;5.974;2023-04-09T02:37:03;102405.91;;;8.67;100.00
59757;BME280;45631;51.962;5.974;2023-04-09T02:39:31;102404.25;;;8.64;100.00
59757;BME280;45631;51.962;5.974;2023-04-09T02:41:59;102406.94;;;8.62;100.00
59757;BME280;45631;51.962;5.974;2023-04-09T02:44:28;102398.06;;;8.67;100.00
59757;BME280;45631;51.962;5.974;2023-04-09T02:46:57;102393.75;;;8.64;100.00
59757;BME280;45631;51.962;5.974;2023-04-09T02:49:25;102392.19;;;8.58;100.00
59757;BME280;45631;51.962;5.974;2023-04-09T02:51:53;102394.81;;;8.58;100.00
59757;BME280;45631;51.962;5.974;2023-04-09T02:54:23;102394.69;;;8.63;100.00
59757;BME280;45631;51.962;5.974;2023-04-09T02:56:51;102384.22;;;8.61;100.00
59757;BME280;45631;51.962;5.974;2023-04-09T02:59:19;102388.66;;;8.59;100.00
59757;BME280;45631;51.962;5.974;2023-04-09T03:01:47;102387.78;;;8.60;100.00
59757;BME280;45631;51.962;5.974;2023-04-09T03:04:17;102389.63;;;8.57;100.00
59757;BME280;45631;51.962;5.974;2023-04-09T03:06:46;102391.41;;;8.56;100.00
59757;BME280;45631;51.962;5.974;2023-04-09T03:09:14;102381.81;;;8.55;100.00
59757;BME280;45631;51.962;5.974;2023-04-09T03:11:42;102386.22;;;8.53;100.00
59757;BME280;45631;51.962;5.974;2023-04-09T03:14:13;102387.28;;;8.48;100.00
59757;BME280;45631;51.962;5.974;2023-04-09T03:16:41;102378.19;;;8.59;100.00
59757;BME280;45631;51.962;5.974;2023-04-09T03:19:09;102378.19;;;8.59;100.00
59757;BME280;45631;51.962;5.974;2023-04-09T03:21:39;102379.25;;;8.54;100.00
59757;BME280;45631;51.962;5.974;2023-04-09T03:24:07;102385.44;;;8.51;100.00
59757;BME280;45631;51.962;5.974;2023-04-09T03:26:35;102377.69;;;8.48;100.00
59757;BME280;45631;51.962;5.974;2023-04-09T03:29:05;102380.19;;;8.51;100.00
59757;BME280;45631;51.962;5.974;2023-04-09T03:31:33;102376.75;;;8.49;100.00
59757;BME280;45631;51.962;5.974;2023-04-09T03:34:01;102377.75;;;8.45;100.00
59757;BME280;45631;51.962;5.974;2023-04-09T03:36:29;102362.84;;;8.47;100.00
59757;BME280;45631;51.962;5.974;2023-04-09T03:38:59;102367.41;;;8.40;100.00
59757;BME280;45631;51.962;5.974;2023-04-09T03:41:27;102366.44;;;8.43;100.00
59757;BME280;45631;51.962;5.974;2023-04-09T03:43:56;102369.16;;;8.40;100.00
59757;BME280;45631;51.962;5.974;2023-04-09T03:46:24;102364.22;;;8.31;100.00
59757;BME280;45631;51.962;5.974;2023-04-09T03:48:52;102366.72;;;8.34;100.00
59757;BME280;45631;51.962;5.974;2023-04-09T03:51:20;102365.88;;;8.33;100.00
59757;BME280;45631;51.962;5.974;2023-04-09T03:53:48;102367.63;;;8.33;100.00
59757;BME280;45631;51.962;5.974;2023-04-09T03:56:18;102361.44;;;8.35;100.00
59757;BME280;45631;51.962;5.974;2023-04-09T03:58:46;102363.38;;;8.28;100.00
59757;BME280;45631;51.962;5.974;2023-04-09T04:01:15;102365.88;;;8.33;100.00
59757;BME280;45631;51.962;5.974;2023-04-09T04:03:43;102361.63;;;8.29;100.00
59757;BME280;45631;51.962;5.974;2023-04-09T04:06:12;102364.22;;;8.31;100.00
59757;BME280;45631;51.962;5.974;2023-04-09T04:08:40;102362.66;;;8.25;100.00
59757;BME280;45631;51.962;5.974;2023-04-09T04:11:08;102368.72;;;8.25;100.00
59757;BME280;45631;51.962;5.974;2023-04-09T04:13:37;102368.00;;;8.20;100.00
59757;BME280;45631;51.962;5.974;2023-04-09T04:16:06;102370.78;;;8.16;100.00
59757;BME280;45631;51.962;5.974;2023-04-09T04:18:35;102364.75;;;8.12;100.00
59757;BME280;45631;51.962;5.974;2023-04-09T04:21:04;102365.75;;;8.08;100.00
59757;BME280;45631;51.962;5.974;2023-04-09T04:23:33;102368.50;;;8.05;100.00
59757;BME280;45631;51.962;5.974;2023-04-09T04:26:01;102371.06;;;8.06;100.00
59757;BME280;45631;51.962;5.974;2023-04-09T04:28:35;102363.09;;;8.09;100.00
59757;BME280;45631;51.962;5.974;2023-04-09T04:31:08;102369.22;;;8.08;100.00
59757;BME280;45631;51.962;5.974;2023-04-09T04:33:37;102366.66;;;8.07;100.00
59757;BME280;45631;51.962;5.974;2023-04-09T04:36:07;102373.06;;;7.98;100.00
59757;BME280;45631;51.962;5.974;2023-04-09T04:38:35;102375.03;;;7.90;100.00
59757;BME280;45631;51.962;5.974;2023-04-09T04:41:04;102367.28;;;7.85;100.00
59757;BME280;45631;51.962;5.974;2023-04-09T04:43:33;102375.81;;;7.93;100.00
59757;BME280;45631;51.962;5.974;2023-04-09T04:46:01;102371.66;;;7.86;100.00
59757;BME280;45631;51.962;5.974;2023-04-09T04:48:30;102371.00;;;7.78;100.00
59757;BME280;45631;51.962;5.974;2023-04-09T04:50:59;102372.88;;;7.74;100.00
59757;BME280;45631;51.962;5.974;2023-04-09T04:53:28;102379.84;;;7.74;100.00
59757;BME280;45631;51.962;5.974;2023-04-09T04:55:56;102376.59;;;7.66;100.00
59757;BME280;45631;51.962;5.974;2023-04-09T04:58:24;102379.44;;;7.58;100.00
59757;BME280;45631;51.962;5.974;2023-04-09T05:00:52;102377.97;;;7.48;100.00
59757;BME280;45631;51.962;5.974;2023-04-09T05:03:23;102383.31;;;7.43;100.00
59757;BME280;45631;51.962;5.974;2023-04-09T05:05:57;102383.41;;;7.40;100.00
59757;BME280;45631;51.962;5.974;2023-04-09T05:08:25;102381.69;;;7.39;100.00
59757;BME280;45631;51.962;5.974;2023-04-09T05:10:53;102375.06;;;7.27;100.00
59757;BME280;45631;51.962;5.974;2023-04-09T05:13:22;102373.31;;;7.26;100.00
59757;BME280;45631;51.962;5.974;2023-04-09T05:15:50;102367.25;;;7.25;100.00
59757;BME280;45631;51.962;5.974;2023-04-09T05:18:18;102368.47;;;7.12;100.00
59757;BME280;45631;51.962;5.974;2023-04-09T05:20:46;102367.56;;;7.13;100.00
59757;BME280;45631;51.962;5.974;2023-04-09T05:23:16;102369.50;;;7.06;100.00
59757;BME280;45631;51.962;5.974;2023-04-09T05:25:44;102369.78;;;6.96;100.00
59757;BME280;45631;51.962;5.974;2023-04-09T05:28:12;102371.63;;;6.90;100.00
59757;BME280;45631;51.962;5.974;2023-04-09T05:30:45;102370.78;;;6.88;100.00
59757;BME280;45631;51.962;5.974;2023-04-09T05:33:13;102376.19;;;6.82;100.00
59757;BME280;45631;51.962;5.974;2023-04-09T05:35:41;102383.25;;;6.79;100.00
59757;BME280;45631;51.962;5.974;2023-04-09T05:38:09;102377.25;;;6.75;100.00
59757;BME280;45631;51.962;5.974;2023-04-09T05:40:40;102387.03;;;6.67;100.00
59757;BME280;45631;51.962;5.974;2023-04-09T05:43:10;102385.28;;;6.67;100.00
59757;BME280;45631;51.962;5.974;2023-04-09T05:45:38;102381.91;;;6.62;100.00
59757;BME280;45631;51.962;5.974;2023-04-09T05:48:07;102385.50;;;6.58;100.00
59757;BME280;45631;51.962;5.974;2023-04-09T05:50:35;102381.06;;;6.62;100.00
59757;BME280;45631;51.962;5.974;2023-04-09T05:53:20;102379.47;;;6.54;100.00
59757;BME280;45631;51.962;5.974;2023-04-09T05:55:49;102383.72;;;6.60;100.00
59757;BME280;45631;51.962;5.974;2023-04-09T05:58:18;102374.22;;;6.54;100.00
59757;BME280;45631;51.962;5.974;2023-04-09T06:00:46;102371.50;;;6.60;100.00
59757;BME280;45631;51.962;5.974;2023-04-09T06:03:14;102377.56;;;6.63;100.00
59757;BME280;45631;51.962;5.974;2023-04-09T06:05:43;102381.03;;;6.63;100.00
59757;BME280;45631;51.962;5.974;2023-04-09T06:08:12;102378.50;;;6.58;100.00
59757;BME280;45631;51.962;5.974;2023-04-09T06:10:40;102382.00;;;6.59;100.00
59757;BME280;45631;51.962;5.974;2023-04-09T06:13:10;102381.06;;;6.62;100.00
59757;BME280;45631;51.962;5.974;2023-04-09T06:15:38;102383.63;;;6.63;100.00
59757;BME280;45631;51.962;5.974;2023-04-09T06:18:06;102377.47;;;6.66;100.00
59757;BME280;45631;51.962;5.974;2023-04-09T06:20:35;102375.63;;;6.71;100.00
59757;BME280;45631;51.962;5.974;2023-04-09T06:23:03;102377.25;;;6.73;100.00
59757;BME280;45631;51.962;5.974;2023-04-09T06:25:32;102378.09;;;6.75;100.00
59757;BME280;45631;51.962;5.974;2023-04-09T06:28:00;102379.84;;;6.76;100.00
59757;BME280;45631;51.962;5.974;2023-04-09T06:30:30;102387.53;;;6.81;100.00
59757;BME280;45631;51.962;5.974;2023-04-09T06:32:58;102386.75;;;6.79;100.00
59757;BME280;45631;51.962;5.974;2023-04-09T06:35:26;102388.44;;;6.82;100.00
59757;BME280;45631;51.962;5.974;2023-04-09T06:37:54;102391.00;;;6.83;100.00
59757;BME280;45631;51.962;5.974;2023-04-09T06:40:22;102391.75;;;6.87;100.00
59757;BME280;45631;51.962;5.974;2023-04-09T06:42:50;102394.03;;;7.01;100.00
59757;BME280;45631;51.962;5.974;2023-04-09T06:45:19;102400.00;;;7.06;100.00
59757;BME280;45631;51.962;5.974;2023-04-09T06:47:48;102401.59;;;7.11;100.00
59757;BME280;45631;51.962;5.974;2023-04-09T06:50:17;102401.59;;;7.13;100.00
59757;BME280;45631;51.962;5.974;2023-04-09T06:52:45;102399.38;;;7.31;100.00
59757;BME280;45631;51.962;5.974;2023-04-09T06:55:13;102395.00;;;7.31;100.00
59757;BME280;45631;51.962;5.974;2023-04-09T06:57:41;102393.94;;;7.38;100.00
59757;BME280;45631;51.962;5.974;2023-04-09T07:00:10;102398.00;;;7.50;100.00
59757;BME280;45631;51.962;5.974;2023-04-09T07:02:38;102395.13;;;7.58;100.00
59757;BME280;45631;51.962;5.974;2023-04-09T07:05:09;102394.94;;;7.66;100.00
59757;BME280;45631;51.962;5.974;2023-04-09T07:07:37;102403.44;;;7.74;100.00
59757;BME280;45631;51.962;5.974;2023-04-09T07:10:07;102398.78;;;7.84;100.00
59757;BME280;45631;51.962;5.974;2023-04-09T07:12:35;102394.97;;;7.95;100.00
59757;BME280;45631;51.962;5.974;2023-04-09T07:15:04;102398.06;;;8.08;100.00
59757;BME280;45631;51.962;5.974;2023-04-09T07:17:33;102403.91;;;8.18;100.00
59757;BME280;45631;51.962;5.974;2023-04-09T07:20:01;102407.00;;;8.31;100.00
59757;BME280;45631;51.962;5.974;2023-04-09T07:22:31;102407.66;;;8.38;100.00
59757;BME280;45631;51.962;5.974;2023-04-09T07:24:59;102404.88;;;8.44;100.00
59757;BME280;45631;51.962;5.974;2023-04-09T07:27:27;102401.63;;;8.64;100.00
59757;BME280;45631;51.962;5.974;2023-04-09T07:29:58;102402.16;;;8.75;100.00
59757;BME280;45631;51.962;5.974;2023-04-09T07:32:27;102402.41;;;8.94;100.00
59757;BME280;45631;51.962;5.974;2023-04-09T07:34:55;102396.88;;;9.02;100.00
59757;BME280;45631;51.962;5.974;2023-04-09T07:37:25;102405.09;;;9.18;100.00
59757;BME280;45631;51.962;5.974;2023-04-09T07:39:55;102405.50;;;9.31;100.00
59757;BME280;45631;51.962;5.974;2023-04-09T07:42:23;102394.56;;;9.45;100.00
59757;BME280;45631;51.962;5.974;2023-04-09T07:44:51;102396.50;;;9.63;100.00
59757;BME280;45631;51.962;5.974;2023-04-09T07:47:20;102398.50;;;9.80;100.00
59757;BME280;45631;51.962;5.974;2023-04-09T07:49:48;102397.03;;;9.97;100.00
59757;BME280;45631;51.962;5.974;2023-04-09T07:52:16;102401.00;;;10.07;100.00
59757;BME280;45631;51.962;5.974;2023-04-09T07:54:48;102396.13;;;10.20;100.00
59757;BME280;45631;51.962;5.974;2023-04-09T07:57:17;102401.16;;;10.26;100.00
59757;BME280;45631;51.962;5.974;2023-04-09T07:59:45;102404.81;;;10.46;100.00
59757;BME280;45631;51.962;5.974;2023-04-09T08:02:16;102404.25;;;10.60;100.00
59757;BME280;45631;51.962;5.974;2023-04-09T08:04:47;102401.72;;;10.79;100.00
59757;BME280;45631;51.962;5.974;2023-04-09T08:07:17;102405.19;;;11.02;100.00
59757;BME280;45631;51.962;5.974;2023-04-09T08:09:45;102403.47;;;11.21;100.00
59757;BME280;45631;51.962;5.974;2023-04-09T08:12:18;102404.31;;;11.42;100.00
59757;BME280;45631;51.962;5.974;2023-04-09T08:14:46;102409.75;;;11.58;100.00
59757;BME280;45631;51.962;5.974;2023-04-09T08:17:14;102403.50;;;11.61;100.00
59757;BME280;45631;51.962;5.974;2023-04-09T08:19:42;102402.59;;;11.81;100.00
59757;BME280;45631;51.962;5.974;2023-04-09T08:22:13;102396.53;;;11.79;100.00
59757;BME280;45631;51.962;5.974;2023-04-09T08:24:41;102397.75;;;11.91;100.00
59757;BME280;45631;51.962;5.974;2023-04-09T08:27:09;102398.06;;;12.04;100.00
59757;BME280;45631;51.962;5.974;2023-04-09T08:29:39;102404.06;;;12.26;100.00
59757;BME280;45631;51.962;5.974;2023-04-09T08:32:08;102405.66;;;12.48;100.00
59757;BME280;45631;51.962;5.974;2023-04-09T08:34:36;102412.63;;;12.68;100.00
59757;BME280;45631;51.962;5.974;2023-04-09T08:37:04;102415.03;;;12.73;100.00
59757;BME280;45631;51.962;5.974;2023-04-09T08:39:32;102414.25;;;12.88;100.00
59757;BME280;45631;51.962;5.974;2023-04-09T08:42:05;102414.97;;;12.92;100.00
59757;BME280;45631;51.962;5.974;2023-04-09T08:44:33;102419.53;;;12.88;100.00
59757;BME280;45631;51.962;5.974;2023-04-09T08:47:07;102409.91;;;13.05;100.00
59757;BME280;45631;51.962;5.974;2023-04-09T08:49:38;102404.41;;;13.09;100.00
59757;BME280;45631;51.962;5.974;2023-04-09T08:52:07;102410.22;;;12.98;100.00
59757;BME280;45631;51.962;5.974;2023-04-09T08:54:37;102405.16;;;13.29;100.00
59757;BME280;45631;51.962;5.974;2023-04-09T08:57:06;102398.50;;;13.39;100.00
59757;BME280;45631;51.962;5.974;2023-04-09T08:59:34;102403.13;;;13.51;100.00
59757;BME280;45631;51.962;5.974;2023-04-09T09:02:08;102401.16;;;13.55;100.00
59757;BME280;45631;51.962;5.974;2023-04-09T09:04:44;102386.78;;;13.61;100.00
59757;BME280;45631;51.962;5.974;2023-04-09T09:07:13;102395.34;;;13.82;100.00
59757;BME280;45631;51.962;5.974;2023-04-09T09:09:52;102392.22;;;14.07;100.00
59757;BME280;45631;51.962;5.974;2023-04-09T09:12:31;102392.88;;;13.79;96.98
59757;BME280;45631;51.962;5.974;2023-04-09T09:14:59;102387.16;;;14.02;99.86
59757;BME280;45631;51.962;5.974;2023-04-09T09:17:29;102391.34;;;14.39;100.00
59757;BME280;45631;51.962;5.974;2023-04-09T09:19:57;102378.06;;;14.70;100.00
59757;BME280;45631;51.962;5.974;2023-04-09T09:22:25;102379.28;;;14.65;94.36
59757;BME280;45631;51.962;5.974;2023-04-09T09:24:53;102380.31;;;14.46;91.41
59757;BME280;45631;51.962;5.974;2023-04-09T09:27:33;102379.00;;;14.69;88.97
59757;BME280;45631;51.962;5.974;2023-04-09T09:30:06;102372.97;;;14.67;89.77
59757;BME280;45631;51.962;5.974;2023-04-09T09:32:37;102364.25;;;14.96;93.71
59757;BME280;45631;51.962;5.974;2023-04-09T09:35:06;102366.22;;;14.92;91.21
59757;BME280;45631;51.962;5.974;2023-04-09T09:37:34;102372.41;;;15.07;90.02
59757;BME280;45631;51.962;5.974;2023-04-09T09:40:03;102367.88;;;15.38;89.97
59757;BME280;45631;51.962;5.974;2023-04-09T09:42:31;102375.06;;;15.36;88.70
59757;BME280;45631;51.962;5.974;2023-04-09T09:45:00;102368.13;;;15.04;89.78
59757;BME280;45631;51.962;5.974;2023-04-09T09:47:33;102368.53;;;15.42;86.27
59757;BME280;45631;51.962;5.974;2023-04-09T09:50:04;102367.19;;;15.63;87.97
59757;BME280;45631;51.962;5.974;2023-04-09T09:52:33;102362.84;;;15.77;89.72
59757;BME280;45631;51.962;5.974;2023-04-09T09:55:04;102361.78;;;15.94;84.48
59757;BME280;45631;51.962;5.974;2023-04-09T09:57:37;102356.69;;;15.76;81.51
59757;BME280;45631;51.962;5.974;2023-04-09T10:00:07;102362.78;;;15.64;83.59
59757;BME280;45631;51.962;5.974;2023-04-09T10:02:41;102354.75;;;16.07;85.64
59757;BME280;45631;51.962;5.974;2023-04-09T10:05:12;102360.59;;;15.85;78.68
59757;BME280;45631;51.962;5.974;2023-04-09T10:07:42;102362.75;;;15.93;77.85
59757;BME280;45631;51.962;5.974;2023-04-09T10:10:10;102357.22;;;16.10;78.07
59757;BME280;45631;51.962;5.974;2023-04-09T10:12:39;102353.22;;;16.17;70.88
59757;BME280;45631;51.962;5.974;2023-04-09T10:15:10;102346.78;;;16.07;71.31
59757;BME280;45631;51.962;5.974;2023-04-09T10:17:39;102342.13;;;16.38;73.32
59757;BME280;45631;51.962;5.974;2023-04-09T10:20:13;102337.56;;;16.40;67.92
59757;BME280;45631;51.962;5.974;2023-04-09T10:22:46;102331.41;;;16.39;73.88
59757;BME280;45631;51.962;5.974;2023-04-09T10:25:15;102332.06;;;16.96;73.90
59757;BME280;45631;51.962;5.974;2023-04-09T10:27:43;102327.59;;;17.22;65.02
59757;BME280;45631;51.962;5.974;2023-04-09T10:30:32;102321.66;;;17.06;62.16
59757;BME280;45631;51.962;5.974;2023-04-09T10:33:10;102323.53;;;17.43;62.71
59757;BME280;45631;51.962;5.974;2023-04-09T10:35:40;102312.97;;;17.54;59.54
59757;BME280;45631;51.962;5.974;2023-04-09T10:38:13;102312.44;;;17.86;58.96
59757;BME280;45631;51.962;5.974;2023-04-09T10:40:41;102308.19;;;17.59;55.60
59757;BME280;45631;51.962;5.974;2023-04-09T10:43:17;102311.25;;;17.66;58.59
59757;BME280;45631;51.962;5.974;2023-04-09T10:45:47;102309.47;;;17.53;55.27
59757;BME280;45631;51.962;5.974;2023-04-09T10:48:19;102310.53;;;17.88;58.16
59757;BME280;45631;51.962;5.974;2023-04-09T10:50:49;102303.25;;;18.03;55.24
59757;BME280;45631;51.962;5.974;2023-04-09T10:53:22;102306.66;;;17.68;53.91
59757;BME280;45631;51.962;5.974;2023-04-09T10:55:51;102300.59;;;17.90;53.66
59757;BME280;45631;51.962;5.974;2023-04-09T10:58:19;102300.44;;;17.80;55.87
59757;BME280;45631;51.962;5.974;2023-04-09T11:00:48;102296.41;;;18.12;56.36
59757;BME280;45631;51.962;5.974;2023-04-09T11:03:26;102291.69;;;18.39;58.48
59757;BME280;45631;51.962;5.974;2023-04-09T11:06:00;102299.25;;;18.57;55.01
59757;BME280;45631;51.962;5.974;2023-04-09T11:08:30;102291.84;;;19.07;55.51
59757;BME280;45631;51.962;5.974;2023-04-09T11:10:59;102287.34;;;19.31;51.49
59757;BME280;45631;51.962;5.974;2023-04-09T11:13:29;102288.53;;;19.04;50.44
59757;BME280;45631;51.962;5.974;2023-04-09T11:15:57;102281.88;;;18.98;49.46
59757;BME280;45631;51.962;5.974;2023-04-09T11:18:28;102279.97;;;18.65;49.29
59757;BME280;45631;51.962;5.974;2023-04-09T11:20:59;102276.88;;;18.82;51.65
59757;BME280;45631;51.962;5.974;2023-04-09T11:23:32;102282.38;;;18.56;49.93
59757;BME280;45631;51.962;5.974;2023-04-09T11:26:00;102282.06;;;18.61;49.13
59757;BME280;45631;51.962;5.974;2023-04-09T11:28:28;102274.47;;;19.02;50.86
59757;BME280;45631;51.962;5.974;2023-04-09T11:30:56;102267.56;;;19.22;49.56
59757;BME280;45631;51.962;5.974;2023-04-09T11:33:30;102265.63;;;19.35;46.93
59757;BME280;45631;51.962;5.974;2023-04-09T11:36:03;102273.88;;;18.98;47.87
59757;BME280;45631;51.962;5.974;2023-04-09T11:38:31;102269.03;;;19.26;46.63
59757;BME280;45631;51.962;5.974;2023-04-09T11:41:00;102269.03;;;19.26;45.56
59757;BME280;45631;51.962;5.974;2023-04-09T11:43:28;102268.25;;;18.67;44.71
59757;BME280;45631;51.962;5.974;2023-04-09T11:45:56;102265.84;;;18.87;44.94
59757;BME280;45631;51.962;5.974;2023-04-09T11:48:25;102265.81;;;18.53;46.64
59757;BME280;45631;51.962;5.974;2023-04-09T11:50:53;102262.66;;;18.70;45.92
59757;BME280;45631;51.962;5.974;2023-04-09T11:53:29;102274.22;;;18.94;46.64
59757;BME280;45631;51.962;5.974;2023-04-09T11:55:58;102272.28;;;19.41;46.49
59757;BME280;45631;51.962;5.974;2023-04-09T11:58:26;102272.59;;;19.70;46.40
59757;BME280;45631;51.962;5.974;2023-04-09T12:00:55;102280.38;;;19.51;44.48
59757;BME280;45631;51.962;5.974;2023-04-09T12:03:30;102282.91;;;18.73;45.25
59757;BME280;45631;51.962;5.974;2023-04-09T12:06:00;102282.72;;;19.10;44.86
59757;BME280;45631;51.962;5.974;2023-04-09T12:08:32;102277.50;;;19.31;46.63
59757;BME280;45631;51.962;5.974;2023-04-09T12:11:08;102275.13;;;19.72;43.29
59757;BME280;45631;51.962;5.974;2023-04-09T12:13:37;102277.69;;;19.73;47.62
59757;BME280;45631;51.962;5.974;2023-04-09T12:16:09;102271.50;;;19.62;48.07
59757;BME280;45631;51.962;5.974;2023-04-09T12:18:38;102271.44;;;19.96;46.91
59757;BME280;45631;51.962;5.974;2023-04-09T12:21:06;102253.38;;;20.41;46.34
59757;BME280;45631;51.962;5.974;2023-04-09T12:23:36;102261.84;;;20.25;47.39
59757;BME280;45631;51.962;5.974;2023-04-09T12:26:04;102263.25;;;19.76;48.95
59757;BME280;45631;51.962;5.974;2023-04-09T12:28:32;102260.69;;;19.74;48.53
59757;BME280;45631;51.962;5.974;2023-04-09T12:31:03;102260.91;;;19.94;46.64
59757;BME280;45631;51.962;5.974;2023-04-09T12:33:31;102257.88;;;20.20;48.40
59757;BME280;45631;51.962;5.974;2023-04-09T12:35:59;102260.69;;;20.18;47.94
59757;BME280;45631;51.962;5.974;2023-04-09T12:38:28;102259.53;;;19.56;49.85
59757;BME280;45631;51.962;5.974;2023-04-09T12:40:57;102255.41;;;19.52;47.94
59757;BME280;45631;51.962;5.974;2023-04-09T12:43:27;102257.28;;;20.16;48.19
59757;BME280;45631;51.962;5.974;2023-04-09T12:45:55;102250.44;;;20.02;48.33
59757;BME280;45631;51.962;5.974;2023-04-09T12:48:23;102248.69;;;20.34;48.68
59757;BME280;45631;51.962;5.974;2023-04-09T12:50:54;102243.91;;;20.16;48.55
59757;BME280;45631;51.962;5.974;2023-04-09T12:53:22;102231.66;;;19.92;48.25
59757;BME280;45631;51.962;5.974;2023-04-09T12:55:52;102246.84;;;19.92;48.79
59757;BME280;45631;51.962;5.974;2023-04-09T12:58:24;102239.94;;;20.53;47.19
59757;BME280;45631;51.962;5.974;2023-04-09T13:00:53;102236.72;;;20.70;46.86